Kendall Alyse — WDE4829 — position and weather

sailwx.info

Track history (hours):
 
Tides and Currents Weather Stations Pressure Air Temp Water Temp Dewpoint Dewpoint Depression Visibility Wind Speed Wind Dir Waves Ship Positions

Kendall Alyse

Owner: The Tug Kendall Alyse, L.L.C., Sugar Land, TX. More information available from US FCC via Universal Licensing System and Coast Guard Vessel Documentation Center.

Last reported at 2017-Dec-17 09:09 UTC. Time now 2017-Dec-17 15:45 UTC.
Position N 29°46' W 095°06'.

Length 20 m.

MMSI: 357358340.

Date/timePositionNaut miles runAvg speedWind from/ knotsBaromVisibWave heightAir tempDewpointWater temp
2017-Dec-17 09:09N 29°46' W 095°06'1 3.7
2017-Dec-17 09:00N 29°46' W 095°05'0 0.8
2017-Dec-17 08:23N 29°46' W 095°05'1 0.2
2017-Dec-17 00:28N 29°46' W 095°07'1 0.0
2017-Dec-16 07:41N 29°46' W 095°06'1 3.3
2017-Dec-16 07:30N 29°46' W 095°05'2 2.7
2017-Dec-16 06:46N 29°47' W 095°04'2 5.5
2017-Dec-16 06:28N 29°46' W 095°05'3 6.7
2017-Dec-16 06:00N 29°44' W 095°08'3 6.1
2017-Dec-16 05:30N 29°45' W 095°11'3 6.6
2017-Dec-16 05:00N 29°43' W 095°15'1 2.5
2017-Dec-16 04:30N 29°43' W 095°16'2 4.1
2017-Dec-16 04:01N 29°44' W 095°14'3 4.9
2017-Dec-16 03:27N 29°45' W 095°11'3 5.6
2017-Dec-16 02:58N 29°44' W 095°08'3 5.6
2017-Dec-16 02:29N 29°46' W 095°05'3 1.4
2017-Dec-16 00:40N 29°44' W 095°08'0 1.4
2017-Dec-16 00:30N 29°44' W 095°08'3 5.4
2017-Dec-16 00:00N 29°46' W 095°05'2 3.9
2017-Dec-15 23:30N 29°47' W 095°04'2 0.6
2017-Dec-15 19:50N 29°46' W 095°06'1 3.2
2017-Dec-15 19:22N 29°47' W 095°05'3 2.9
2017-Dec-15 18:21N 29°44' W 095°07'2 6.3
2017-Dec-15 18:00N 29°44' W 095°09'3 4.9
2017-Dec-15 17:28N 29°44' W 095°12'1 2.1
2017-Dec-15 16:59N 29°44' W 095°13'1 1.3
2017-Dec-15 16:29N 29°44' W 095°13'0 0.0
2017-Dec-15 15:58N 29°44' W 095°13'0 0.0
2017-Dec-15 15:15N 29°44' W 095°13'0 1.4
2017-Dec-15 14:58N 29°43' W 095°14'2 3.2
2017-Dec-15 14:23N 29°44' W 095°12'2 5.3
2017-Dec-15 13:56N 29°44' W 095°09'2 5.4
2017-Dec-15 13:30N 29°44' W 095°07'3 1.2
2017-Dec-15 10:57N 29°47' W 095°04'0 0.0
2017-Dec-15 08:24N 29°47' W 095°04'2 4.0
2017-Dec-15 07:53N 29°45' W 095°06'2 5.5
2017-Dec-15 07:30N 29°44' W 095°08'3 5.6
2017-Dec-15 07:00N 29°45' W 095°11'3 5.1
2017-Dec-15 06:30N 29°44' W 095°14'2 5.0
2017-Dec-15 06:00N 29°44' W 095°16'1 2.4
2017-Dec-15 05:30N 29°45' W 095°17'1 1.5
2017-Dec-15 05:00N 29°44' W 095°17'2 4.6
2017-Dec-15 04:29N 29°43' W 095°14'2 5.1
2017-Dec-15 04:01N 29°45' W 095°11'9 0.9
2017-Dec-14 17:53N 29°44' W 095°01'0 0.0
2017-Dec-14 17:25N 29°44' W 095°01'0 0.0
2017-Dec-14 17:00N 29°44' W 095°01'0 0.0
2017-Dec-14 14:07N 29°44' W 095°01'0 0.1
2017-Dec-14 14:00N 29°44' W 095°01'0 0.1
2017-Dec-14 13:29N 29°44' W 095°01'0 0.0
2017-Dec-14 12:51N 29°44' W 095°01'0 0.0
2017-Dec-14 12:18N 29°44' W 095°01'0 0.0
2017-Dec-14 11:37N 29°44' W 095°01'0 0.0
2017-Dec-14 11:16N 29°44' W 095°01'0 0.0
2017-Dec-14 11:00N 29°44' W 095°01'0 0.0
2017-Dec-14 10:25N 29°44' W 095°01'0 0.0
2017-Dec-14 09:57N 29°44' W 095°01'0 0.0
2017-Dec-14 09:26N 29°44' W 095°01'0 0.0
2017-Dec-14 08:19N 29°44' W 095°01'0 0.0
2017-Dec-14 08:00N 29°44' W 095°01'0 0.0
2017-Dec-14 07:17N 29°44' W 095°01'0 0.0
2017-Dec-14 06:59N 29°44' W 095°01'0 0.0
2017-Dec-14 06:24N 29°44' W 095°01'0 0.0
2017-Dec-14 05:59N 29°44' W 095°01'0 0.0
2017-Dec-14 05:29N 29°44' W 095°01'0 0.2
2017-Dec-14 05:00N 29°44' W 095°01'0 0.7
2017-Dec-14 04:28N 29°44' W 095°01'1 1.4
2017-Dec-14 03:57N 29°44' W 095°02'3 6.8
2017-Dec-14 03:28N 29°46' W 095°05'2 3.2
2017-Dec-14 02:56N 29°47' W 095°04'2 1.4
2017-Dec-14 01:08N 29°45' W 095°06'1 4.5
2017-Dec-14 00:58N 29°46' W 095°05'0 0.2
2017-Dec-13 23:09N 29°46' W 095°05'1 0.5
2017-Dec-13 22:00N 29°46' W 095°05'2 4.1
2017-Dec-13 21:30N 29°44' W 095°07'2 3.6
2017-Dec-13 21:00N 29°44' W 095°09'2 3.8
2017-Dec-13 20:25N 29°45' W 095°11'2 4.0
2017-Dec-13 19:59N 29°44' W 095°13'3 3.8
2017-Dec-13 19:19N 29°44' W 095°16'0 0.8
2017-Dec-13 19:00N 29°43' W 095°16'0 0.2
2017-Dec-13 18:29N 29°43' W 095°16'0 0.3
2017-Dec-13 18:00N 29°44' W 095°16'4 4.8
2017-Dec-13 17:11N 29°45' W 095°11'1 6.2
2017-Dec-13 17:00N 29°45' W 095°10'3 5.8
2017-Dec-13 16:30N 29°44' W 095°07'3 5.3
2017-Dec-13 15:54N 29°47' W 095°05'1 2.2
2017-Dec-13 15:30N 29°47' W 095°04'0 0.0
2017-Dec-13 15:00N 29°47' W 095°04'2 2.2
2017-Dec-13 14:14N 29°46' W 095°05'1 3.5
2017-Dec-13 13:54N 29°46' W 095°06'0 0.0
2017-Dec-13 13:20N 29°46' W 095°06'1 1.8
2017-Dec-13 13:00N 29°46' W 095°06'2 3.9
2017-Dec-13 12:30N 29°47' W 095°04'0 0.2
2017-Dec-13 11:40N 29°47' W 095°04'0 0.2
2017-Dec-13 11:28N 29°47' W 095°04'0 0.4
2017-Dec-13 10:59N 29°47' W 095°04'2 3.8
2017-Dec-13 10:30N 29°45' W 095°04'3 5.4
2017-Dec-13 10:00N 29°44' W 095°01'3 5.4
2017-Dec-13 09:30N 29°42' W 094°60'1 1.6
2017-Dec-13 09:00N 29°41' W 095°00'0 0.0
2017-Dec-13 08:31N 29°41' W 095°00'0 0.0
2017-Dec-13 08:00N 29°41' W 095°00'1 2.8
2017-Dec-13 07:30N 29°41' W 094°59'1 2.9
2017-Dec-13 07:00N 29°41' W 094°57'1 2.4
2017-Dec-13 06:30N 29°41' W 094°56'1 2.1
2017-Dec-13 05:59N 29°42' W 094°55'1 1.6
2017-Dec-13 05:30N 29°42' W 094°56'1 0.3
2017-Dec-13 02:19N 29°43' W 094°57'1 1.4
2017-Dec-13 01:56N 29°43' W 094°56'0 0.5
2017-Dec-13 01:30N 29°43' W 094°56'1 1.8
2017-Dec-13 00:59N 29°42' W 094°55'2 3.5
2017-Dec-13 00:29N 29°40' W 094°56'2 4.3
2017-Dec-13 00:01N 29°41' W 094°58'3 5.1
2017-Dec-12 23:30N 29°42' W 095°01'2 0.4
2017-Dec-12 19:31N 29°44' W 095°01'0 0.7
2017-Dec-12 19:08N 29°43' W 095°01'0 0.0
2017-Dec-12 19:00N 29°43' W 095°01'2 3.9
2017-Dec-12 18:30N 29°44' W 095°03'3 4.4
2017-Dec-12 17:44N 29°47' W 095°04'0 0.1
2017-Dec-12 17:24N 29°47' W 095°04'2 0.3
2017-Dec-12 09:25N 29°46' W 095°06'2 5.6
2017-Dec-12 09:01N 29°45' W 095°04'3 6.1
2017-Dec-12 08:30N 29°43' W 095°01'3 5.8
2017-Dec-12 08:00N 29°41' W 094°59'2 3.8
2017-Dec-12 07:31N 29°41' W 094°57'2 3.3
2017-Dec-12 06:57N 29°42' W 094°55'1 2.6
2017-Dec-12 06:29N 29°43' W 094°56'1 1.3
2017-Dec-12 05:56N 29°43' W 094°56'0 0.9
2017-Dec-12 05:28N 29°43' W 094°57'1 2.8
2017-Dec-12 05:01N 29°42' W 094°56'1 1.2
2017-Dec-12 04:30N 29°42' W 094°55'2 3.1
2017-Dec-12 04:00N 29°41' W 094°56'2 3.8
2017-Dec-12 03:30N 29°41' W 094°58'2 3.8
2017-Dec-12 03:00N 29°42' W 094°60'2 4.8
2017-Dec-12 02:30N 29°44' W 095°02'3 4.9
2017-Dec-12 01:51N 29°46' W 095°04'1 2.3
2017-Dec-12 01:29N 29°46' W 095°05'0 0.1
2017-Dec-12 00:41N 29°46' W 095°05'1 0.5
2017-Dec-11 21:52N 29°46' W 095°06'3 3.6
2017-Dec-11 21:06N 29°44' W 095°08'2 0.5
2017-Dec-11 16:21N 29°45' W 095°11'2 5.5
2017-Dec-11 15:59N 29°44' W 095°08'3 1.6
2017-Dec-11 14:11N 29°46' W 095°06'0 0.0
2017-Dec-11 13:59N 29°46' W 095°06'0 0.0
2017-Dec-11 13:29N 29°46' W 095°06'0 0.0
2017-Dec-11 13:00N 29°46' W 095°06'0 0.0
2017-Dec-11 12:26N 29°46' W 095°06'0 0.0
2017-Dec-11 12:00N 29°46' W 095°06'0 0.0
2017-Dec-11 11:28N 29°46' W 095°06'0 0.6
2017-Dec-11 11:00N 29°46' W 095°06'1 2.2
2017-Dec-11 10:30N 29°46' W 095°05'1 2.7
2017-Dec-11 10:00N 29°47' W 095°04'1 2.8
2017-Dec-11 09:30N 29°46' W 095°05'2 4.7
2017-Dec-11 09:00N 29°44' W 095°07'3 4.8
2017-Dec-11 08:28N 29°45' W 095°10'2 3.8
2017-Dec-11 08:00N 29°45' W 095°12'2 4.9
2017-Dec-11 07:30N 29°43' W 095°14'0 0.0
2017-Dec-11 07:00N 29°43' W 095°14'0 0.0
2017-Dec-11 06:30N 29°43' W 095°14'0 0.0
2017-Dec-11 06:00N 29°43' W 095°14'0 0.0
2017-Dec-11 05:30N 29°43' W 095°14'0 0.0
2017-Dec-11 05:00N 29°43' W 095°14'0 0.0
2017-Dec-11 04:30N 29°43' W 095°14'0 0.0
2017-Dec-11 04:00N 29°43' W 095°14'0 0.0
2017-Dec-11 03:30N 29°43' W 095°14'0 0.0
2017-Dec-11 03:00N 29°43' W 095°14'0 0.0
2017-Dec-11 02:30N 29°43' W 095°14'0 0.0
2017-Dec-11 02:00N 29°43' W 095°14'0 0.0
2017-Dec-11 01:30N 29°43' W 095°14'0 0.0
2017-Dec-11 01:00N 29°43' W 095°14'0 0.0
2017-Dec-11 00:30N 29°43' W 095°14'0 0.0
2017-Dec-11 00:00N 29°43' W 095°14'0 0.0
2017-Dec-10 23:30N 29°43' W 095°14'0 0.0
2017-Dec-10 23:00N 29°43' W 095°14'0 0.0
2017-Dec-10 22:30N 29°43' W 095°14'0 0.0
2017-Dec-10 22:00N 29°43' W 095°14'0 0.0
2017-Dec-10 21:30N 29°43' W 095°14'0 0.0
2017-Dec-10 21:00N 29°43' W 095°14'0 0.0
2017-Dec-10 20:30N 29°43' W 095°14'0 0.0
2017-Dec-10 20:00N 29°43' W 095°14'0 0.0
2017-Dec-10 19:30N 29°43' W 095°14'0 0.0
2017-Dec-10 19:01N 29°43' W 095°14'0 0.0
2017-Dec-10 18:30N 29°43' W 095°14'0 0.0
2017-Dec-10 18:00N 29°43' W 095°14'0 0.0
2017-Dec-10 17:30N 29°43' W 095°14'0 0.0
2017-Dec-10 17:00N 29°43' W 095°14'0 0.0
2017-Dec-10 16:30N 29°43' W 095°14'0 0.0
2017-Dec-10 16:00N 29°43' W 095°14'0 0.0
2017-Dec-10 15:30N 29°43' W 095°14'0 0.0
2017-Dec-10 15:00N 29°43' W 095°14'0 0.0
2017-Dec-10 14:30N 29°43' W 095°14'0 0.0
2017-Dec-10 14:01N 29°43' W 095°14'0 0.0
2017-Dec-10 13:30N 29°43' W 095°14'0 0.0
2017-Dec-10 12:59N 29°43' W 095°14'0 0.0
2017-Dec-10 12:30N 29°43' W 095°14'0 0.0
2017-Dec-10 12:00N 29°43' W 095°14'0 0.0
2017-Dec-10 11:31N 29°43' W 095°14'0 0.0
2017-Dec-10 11:00N 29°43' W 095°14'0 0.0
2017-Dec-10 10:30N 29°43' W 095°14'0 0.0
2017-Dec-10 10:00N 29°43' W 095°14'0 0.0
2017-Dec-10 09:30N 29°43' W 095°14'0 0.0
2017-Dec-10 09:00N 29°43' W 095°14'0 0.0
2017-Dec-10 08:31N 29°43' W 095°14'0 0.0
2017-Dec-10 08:00N 29°43' W 095°14'0 0.0
2017-Dec-10 07:31N 29°43' W 095°14'0 0.0
2017-Dec-10 07:00N 29°43' W 095°14'0 0.0
2017-Dec-10 06:30N 29°43' W 095°14'0 0.0
2017-Dec-10 06:00N 29°43' W 095°14'0 0.0
2017-Dec-10 05:30N 29°43' W 095°14'0 0.0
2017-Dec-10 05:00N 29°43' W 095°14'0 0.0
2017-Dec-10 04:31N 29°43' W 095°14'0 0.0
2017-Dec-10 04:01N 29°43' W 095°14'0 0.0
2017-Dec-10 03:30N 29°43' W 095°14'0 0.0
2017-Dec-10 03:00N 29°43' W 095°14'0 0.0
2017-Dec-10 02:30N 29°43' W 095°14'0 0.0
2017-Dec-10 01:56N 29°43' W 095°14'0 0.0
2017-Dec-10 01:29N 29°43' W 095°14'1 1.2
2017-Dec-10 00:59N 29°44' W 095°13'3 5.5
2017-Dec-10 00:30N 29°45' W 095°11'3 5.5
2017-Dec-10 00:00N 29°44' W 095°08'3 5.7
2017-Dec-09 23:30N 29°46' W 095°05'1 0.1
2017-Dec-09 17:52N 29°47' W 095°05'0 0.3
2017-Dec-09 16:34N 29°47' W 095°04'1 5.8
2017-Dec-09 16:27N 29°46' W 095°05'0 0.1
2017-Dec-09 15:18N 29°46' W 095°05'0 0.0
2017-Dec-09 15:00N 29°46' W 095°05'0 0.1
2017-Dec-09 13:58N 29°46' W 095°05'1 1.1
2017-Dec-09 13:28N 29°47' W 095°05'1 1.7
2017-Dec-09 12:59N 29°47' W 095°04'0 0.2
2017-Dec-09 12:23N 29°47' W 095°04'2 4.4
2017-Dec-09 11:57N 29°46' W 095°06'1 0.0
2017-Dec-08 20:14N 29°46' W 095°06'1 1.0
2017-Dec-08 19:17N 29°46' W 095°05'1 3.5
2017-Dec-08 19:00N 29°46' W 095°06'1 1.2
2017-Dec-08 18:28N 29°46' W 095°05'1 0.1
2017-Dec-08 07:28N 29°45' W 095°06'3 1.5
2017-Dec-08 05:25N 29°47' W 095°04'2 3.9
2017-Dec-08 04:58N 29°46' W 095°05'1 1.8
2017-Dec-08 04:21N 29°45' W 095°06'0 0.1
2017-Dec-07 23:05N 29°45' W 095°06'0 6.5
2017-Dec-07 23:00N 29°46' W 095°05'0 0.6
2017-Dec-07 22:24N 29°46' W 095°06'0 0.0
2017-Dec-07 21:35N 29°46' W 095°06'0 5.0
2017-Dec-07 21:30N 29°46' W 095°05'2 4.6
2017-Dec-07 21:00N 29°44' W 095°03'2 4.5
2017-Dec-07 20:30N 29°43' W 095°01'2 4.2
2017-Dec-07 20:00N 29°42' W 094°59'2 4.5
2017-Dec-07 19:30N 29°39' W 094°58'3 5.3
2017-Dec-07 19:00N 29°37' W 094°58'2 3.8
2017-Dec-07 18:30N 29°37' W 094°60'1 2.7
2017-Dec-07 18:00N 29°37' W 095°02'0 0.0
2017-Dec-07 17:30N 29°37' W 095°02'0 0.0
2017-Dec-07 17:00N 29°37' W 095°02'0 0.0
2017-Dec-07 16:30N 29°37' W 095°02'0 0.0
2017-Dec-07 16:00N 29°37' W 095°02'0 0.0
2017-Dec-07 15:30N 29°37' W 095°02'0 0.0
2017-Dec-07 15:00N 29°37' W 095°02'0 0.0
2017-Dec-07 14:30N 29°37' W 095°02'0 0.0
2017-Dec-07 14:00N 29°37' W 095°02'0 0.0
2017-Dec-07 13:30N 29°37' W 095°02'0 0.0
2017-Dec-07 13:00N 29°37' W 095°02'0 0.0
2017-Dec-07 12:31N 29°37' W 095°02'0 0.0
2017-Dec-07 12:00N 29°37' W 095°02'0 0.0
2017-Dec-07 11:30N 29°37' W 095°02'0 0.0
2017-Dec-07 11:00N 29°37' W 095°02'0 0.0
2017-Dec-07 10:30N 29°37' W 095°02'0 0.0
2017-Dec-07 10:00N 29°37' W 095°02'0 0.0
2017-Dec-07 09:30N 29°37' W 095°02'  
Track history (hours):
 
Tides and Currents Weather Stations Pressure Air Temp Water Temp Dewpoint Dewpoint Depression Visibility Wind Speed Wind Dir Waves Ship Positions

Kendall Alyse

Owner: The Tug Kendall Alyse, L.L.C., Sugar Land, TX. More information available from US FCC via Universal Licensing System and Coast Guard Vessel Documentation Center.

Last reported at 2017-Dec-17 09:09 UTC. Time now 2017-Dec-17 15:45 UTC.
Position N 29°46' W 095°06'.

Length 20 m.

MMSI: 357358340.

Date/timePositionNaut miles runAvg speedWind from/ knotsBaromVisibWave heightAir tempDewpointWater temp
2017-Dec-17 09:09N 29°46' W 095°06'1 3.7
2017-Dec-17 09:00N 29°46' W 095°05'0 0.8
2017-Dec-17 08:23N 29°46' W 095°05'1 0.2
2017-Dec-17 00:28N 29°46' W 095°07'1 0.0
2017-Dec-16 07:41N 29°46' W 095°06'1 3.3
2017-Dec-16 07:30N 29°46' W 095°05'2 2.7
2017-Dec-16 06:46N 29°47' W 095°04'2 5.5
2017-Dec-16 06:28N 29°46' W 095°05'3 6.7
2017-Dec-16 06:00N 29°44' W 095°08'3 6.1
2017-Dec-16 05:30N 29°45' W 095°11'3 6.6
2017-Dec-16 05:00N 29°43' W 095°15'1 2.5
2017-Dec-16 04:30N 29°43' W 095°16'2 4.1
2017-Dec-16 04:01N 29°44' W 095°14'3 4.9
2017-Dec-16 03:27N 29°45' W 095°11'3 5.6
2017-Dec-16 02:58N 29°44' W 095°08'3 5.6
2017-Dec-16 02:29N 29°46' W 095°05'3 1.4
2017-Dec-16 00:40N 29°44' W 095°08'0 1.4
2017-Dec-16 00:30N 29°44' W 095°08'3 5.4
2017-Dec-16 00:00N 29°46' W 095°05'2 3.9
2017-Dec-15 23:30N 29°47' W 095°04'2 0.6
2017-Dec-15 19:50N 29°46' W 095°06'1 3.2
2017-Dec-15 19:22N 29°47' W 095°05'3 2.9
2017-Dec-15 18:21N 29°44' W 095°07'2 6.3
2017-Dec-15 18:00N 29°44' W 095°09'3 4.9
2017-Dec-15 17:28N 29°44' W 095°12'1 2.1
2017-Dec-15 16:59N 29°44' W 095°13'1 1.3
2017-Dec-15 16:29N 29°44' W 095°13'0 0.0
2017-Dec-15 15:58N 29°44' W 095°13'0 0.0
2017-Dec-15 15:15N 29°44' W 095°13'0 1.4
2017-Dec-15 14:58N 29°43' W 095°14'2 3.2
2017-Dec-15 14:23N 29°44' W 095°12'2 5.3
2017-Dec-15 13:56N 29°44' W 095°09'2 5.4
2017-Dec-15 13:30N 29°44' W 095°07'3 1.2
2017-Dec-15 10:57N 29°47' W 095°04'0 0.0
2017-Dec-15 08:24N 29°47' W 095°04'2 4.0
2017-Dec-15 07:53N 29°45' W 095°06'2 5.5
2017-Dec-15 07:30N 29°44' W 095°08'3 5.6
2017-Dec-15 07:00N 29°45' W 095°11'3 5.1
2017-Dec-15 06:30N 29°44' W 095°14'2 5.0
2017-Dec-15 06:00N 29°44' W 095°16'1 2.4
2017-Dec-15 05:30N 29°45' W 095°17'1 1.5
2017-Dec-15 05:00N 29°44' W 095°17'2 4.6
2017-Dec-15 04:29N 29°43' W 095°14'2 5.1
2017-Dec-15 04:01N 29°45' W 095°11'9 0.9
2017-Dec-14 17:53N 29°44' W 095°01'0 0.0
2017-Dec-14 17:25N 29°44' W 095°01'0 0.0
2017-Dec-14 17:00N 29°44' W 095°01'0 0.0
2017-Dec-14 14:07N 29°44' W 095°01'0 0.1
2017-Dec-14 14:00N 29°44' W 095°01'0 0.1
2017-Dec-14 13:29N 29°44' W 095°01'0 0.0
2017-Dec-14 12:51N 29°44' W 095°01'0 0.0
2017-Dec-14 12:18N 29°44' W 095°01'0 0.0
2017-Dec-14 11:37N 29°44' W 095°01'0 0.0
2017-Dec-14 11:16N 29°44' W 095°01'0 0.0
2017-Dec-14 11:00N 29°44' W 095°01'0 0.0
2017-Dec-14 10:25N 29°44' W 095°01'0 0.0
2017-Dec-14 09:57N 29°44' W 095°01'0 0.0
2017-Dec-14 09:26N 29°44' W 095°01'0 0.0
2017-Dec-14 08:19N 29°44' W 095°01'0 0.0
2017-Dec-14 08:00N 29°44' W 095°01'0 0.0
2017-Dec-14 07:17N 29°44' W 095°01'0 0.0
2017-Dec-14 06:59N 29°44' W 095°01'0 0.0
2017-Dec-14 06:24N 29°44' W 095°01'0 0.0
2017-Dec-14 05:59N 29°44' W 095°01'0 0.0
2017-Dec-14 05:29N 29°44' W 095°01'0 0.2
2017-Dec-14 05:00N 29°44' W 095°01'0 0.7
2017-Dec-14 04:28N 29°44' W 095°01'1 1.4
2017-Dec-14 03:57N 29°44' W 095°02'3 6.8
2017-Dec-14 03:28N 29°46' W 095°05'2 3.2
2017-Dec-14 02:56N 29°47' W 095°04'2 1.4
2017-Dec-14 01:08N 29°45' W 095°06'1 4.5
2017-Dec-14 00:58N 29°46' W 095°05'0 0.2
2017-Dec-13 23:09N 29°46' W 095°05'1 0.5
2017-Dec-13 22:00N 29°46' W 095°05'2 4.1
2017-Dec-13 21:30N 29°44' W 095°07'2 3.6
2017-Dec-13 21:00N 29°44' W 095°09'2 3.8
2017-Dec-13 20:25N 29°45' W 095°11'2 4.0
2017-Dec-13 19:59N 29°44' W 095°13'3 3.8
2017-Dec-13 19:19N 29°44' W 095°16'0 0.8
2017-Dec-13 19:00N 29°43' W 095°16'0 0.2
2017-Dec-13 18:29N 29°43' W 095°16'0 0.3
2017-Dec-13 18:00N 29°44' W 095°16'4 4.8
2017-Dec-13 17:11N 29°45' W 095°11'1 6.2
2017-Dec-13 17:00N 29°45' W 095°10'3 5.8
2017-Dec-13 16:30N 29°44' W 095°07'3 5.3
2017-Dec-13 15:54N 29°47' W 095°05'1 2.2
2017-Dec-13 15:30N 29°47' W 095°04'0 0.0
2017-Dec-13 15:00N 29°47' W 095°04'2 2.2
2017-Dec-13 14:14N 29°46' W 095°05'1 3.5
2017-Dec-13 13:54N 29°46' W 095°06'0 0.0
2017-Dec-13 13:20N 29°46' W 095°06'1 1.8
2017-Dec-13 13:00N 29°46' W 095°06'2 3.9
2017-Dec-13 12:30N 29°47' W 095°04'0 0.2
2017-Dec-13 11:40N 29°47' W 095°04'0 0.2
2017-Dec-13 11:28N 29°47' W 095°04'0 0.4
2017-Dec-13 10:59N 29°47' W 095°04'2 3.8
2017-Dec-13 10:30N 29°45' W 095°04'3 5.4
2017-Dec-13 10:00N 29°44' W 095°01'3 5.4
2017-Dec-13 09:30N 29°42' W 094°60'1 1.6
2017-Dec-13 09:00N 29°41' W 095°00'0 0.0
2017-Dec-13 08:31N 29°41' W 095°00'0 0.0
2017-Dec-13 08:00N 29°41' W 095°00'1 2.8
2017-Dec-13 07:30N 29°41' W 094°59'1 2.9
2017-Dec-13 07:00N 29°41' W 094°57'1 2.4
2017-Dec-13 06:30N 29°41' W 094°56'1 2.1
2017-Dec-13 05:59N 29°42' W 094°55'1 1.6
2017-Dec-13 05:30N 29°42' W 094°56'1 0.3
2017-Dec-13 02:19N 29°43' W 094°57'1 1.4
2017-Dec-13 01:56N 29°43' W 094°56'0 0.5
2017-Dec-13 01:30N 29°43' W 094°56'1 1.8
2017-Dec-13 00:59N 29°42' W 094°55'2 3.5
2017-Dec-13 00:29N 29°40' W 094°56'2 4.3
2017-Dec-13 00:01N 29°41' W 094°58'3 5.1
2017-Dec-12 23:30N 29°42' W 095°01'2 0.4
2017-Dec-12 19:31N 29°44' W 095°01'0 0.7
2017-Dec-12 19:08N 29°43' W 095°01'0 0.0
2017-Dec-12 19:00N 29°43' W 095°01'2 3.9
2017-Dec-12 18:30N 29°44' W 095°03'3 4.4
2017-Dec-12 17:44N 29°47' W 095°04'0 0.1
2017-Dec-12 17:24N 29°47' W 095°04'2 0.3
2017-Dec-12 09:25N 29°46' W 095°06'2 5.6
2017-Dec-12 09:01N 29°45' W 095°04'3 6.1
2017-Dec-12 08:30N 29°43' W 095°01'3 5.8
2017-Dec-12 08:00N 29°41' W 094°59'2 3.8
2017-Dec-12 07:31N 29°41' W 094°57'2 3.3
2017-Dec-12 06:57N 29°42' W 094°55'1 2.6
2017-Dec-12 06:29N 29°43' W 094°56'1 1.3
2017-Dec-12 05:56N 29°43' W 094°56'0 0.9
2017-Dec-12 05:28N 29°43' W 094°57'1 2.8
2017-Dec-12 05:01N 29°42' W 094°56'1 1.2
2017-Dec-12 04:30N 29°42' W 094°55'2 3.1
2017-Dec-12 04:00N 29°41' W 094°56'2 3.8
2017-Dec-12 03:30N 29°41' W 094°58'2 3.8
2017-Dec-12 03:00N 29°42' W 094°60'2 4.8
2017-Dec-12 02:30N 29°44' W 095°02'3 4.9
2017-Dec-12 01:51N 29°46' W 095°04'1 2.3
2017-Dec-12 01:29N 29°46' W 095°05'0 0.1
2017-Dec-12 00:41N 29°46' W 095°05'1 0.5
2017-Dec-11 21:52N 29°46' W 095°06'3 3.6
2017-Dec-11 21:06N 29°44' W 095°08'2 0.5
2017-Dec-11 16:21N 29°45' W 095°11'2 5.5
2017-Dec-11 15:59N 29°44' W 095°08'3 1.6
2017-Dec-11 14:11N 29°46' W 095°06'0 0.0
2017-Dec-11 13:59N 29°46' W 095°06'0 0.0
2017-Dec-11 13:29N 29°46' W 095°06'0 0.0
2017-Dec-11 13:00N 29°46' W 095°06'0 0.0
2017-Dec-11 12:26N 29°46' W 095°06'0 0.0
2017-Dec-11 12:00N 29°46' W 095°06'0 0.0
2017-Dec-11 11:28N 29°46' W 095°06'0 0.6
2017-Dec-11 11:00N 29°46' W 095°06'1 2.2
2017-Dec-11 10:30N 29°46' W 095°05'1 2.7
2017-Dec-11 10:00N 29°47' W 095°04'1 2.8
2017-Dec-11 09:30N 29°46' W 095°05'2 4.7
2017-Dec-11 09:00N 29°44' W 095°07'3 4.8
2017-Dec-11 08:28N 29°45' W 095°10'2 3.8
2017-Dec-11 08:00N 29°45' W 095°12'2 4.9
2017-Dec-11 07:30N 29°43' W 095°14'0 0.0
2017-Dec-11 07:00N 29°43' W 095°14'0 0.0
2017-Dec-11 06:30N 29°43' W 095°14'0 0.0
2017-Dec-11 06:00N 29°43' W 095°14'0 0.0
2017-Dec-11 05:30N 29°43' W 095°14'0 0.0
2017-Dec-11 05:00N 29°43' W 095°14'0 0.0
2017-Dec-11 04:30N 29°43' W 095°14'0 0.0
2017-Dec-11 04:00N 29°43' W 095°14'0 0.0
2017-Dec-11 03:30N 29°43' W 095°14'0 0.0
2017-Dec-11 03:00N 29°43' W 095°14'0 0.0
2017-Dec-11 02:30N 29°43' W 095°14'0 0.0
2017-Dec-11 02:00N 29°43' W 095°14'0 0.0
2017-Dec-11 01:30N 29°43' W 095°14'0 0.0
2017-Dec-11 01:00N 29°43' W 095°14'0 0.0
2017-Dec-11 00:30N 29°43' W 095°14'0 0.0
2017-Dec-11 00:00N 29°43' W 095°14'0 0.0
2017-Dec-10 23:30N 29°43' W 095°14'0 0.0
2017-Dec-10 23:00N 29°43' W 095°14'0 0.0
2017-Dec-10 22:30N 29°43' W 095°14'0 0.0
2017-Dec-10 22:00N 29°43' W 095°14'0 0.0
2017-Dec-10 21:30N 29°43' W 095°14'0 0.0
2017-Dec-10 21:00N 29°43' W 095°14'0 0.0
2017-Dec-10 20:30N 29°43' W 095°14'0 0.0
2017-Dec-10 20:00N 29°43' W 095°14'0 0.0
2017-Dec-10 19:30N 29°43' W 095°14'0 0.0
2017-Dec-10 19:01N 29°43' W 095°14'0 0.0
2017-Dec-10 18:30N 29°43' W 095°14'0 0.0
2017-Dec-10 18:00N 29°43' W 095°14'0 0.0
2017-Dec-10 17:30N 29°43' W 095°14'0 0.0
2017-Dec-10 17:00N 29°43' W 095°14'0 0.0
2017-Dec-10 16:30N 29°43' W 095°14'0 0.0
2017-Dec-10 16:00N 29°43' W 095°14'0 0.0
2017-Dec-10 15:30N 29°43' W 095°14'0 0.0
2017-Dec-10 15:00N 29°43' W 095°14'0 0.0
2017-Dec-10 14:30N 29°43' W 095°14'0 0.0
2017-Dec-10 14:01N 29°43' W 095°14'0 0.0
2017-Dec-10 13:30N 29°43' W 095°14'0 0.0
2017-Dec-10 12:59N 29°43' W 095°14'0 0.0
2017-Dec-10 12:30N 29°43' W 095°14'0 0.0
2017-Dec-10 12:00N 29°43' W 095°14'0 0.0
2017-Dec-10 11:31N 29°43' W 095°14'0 0.0
2017-Dec-10 11:00N 29°43' W 095°14'0 0.0
2017-Dec-10 10:30N 29°43' W 095°14'0 0.0
2017-Dec-10 10:00N 29°43' W 095°14'0 0.0
2017-Dec-10 09:30N 29°43' W 095°14'0 0.0
2017-Dec-10 09:00N 29°43' W 095°14'0 0.0
2017-Dec-10 08:31N 29°43' W 095°14'0 0.0
2017-Dec-10 08:00N 29°43' W 095°14'0 0.0
2017-Dec-10 07:31N 29°43' W 095°14'0 0.0
2017-Dec-10 07:00N 29°43' W 095°14'0 0.0
2017-Dec-10 06:30N 29°43' W 095°14'0 0.0
2017-Dec-10 06:00N 29°43' W 095°14'0 0.0
2017-Dec-10 05:30N 29°43' W 095°14'0 0.0
2017-Dec-10 05:00N 29°43' W 095°14'0 0.0
2017-Dec-10 04:31N 29°43' W 095°14'0 0.0
2017-Dec-10 04:01N 29°43' W 095°14'0 0.0
2017-Dec-10 03:30N 29°43' W 095°14'0 0.0
2017-Dec-10 03:00N 29°43' W 095°14'0 0.0
2017-Dec-10 02:30N 29°43' W 095°14'0 0.0
2017-Dec-10 01:56N 29°43' W 095°14'0 0.0
2017-Dec-10 01:29N 29°43' W 095°14'1 1.2
2017-Dec-10 00:59N 29°44' W 095°13'3 5.5
2017-Dec-10 00:30N 29°45' W 095°11'3 5.5
2017-Dec-10 00:00N 29°44' W 095°08'3 5.7
2017-Dec-09 23:30N 29°46' W 095°05'1 0.1
2017-Dec-09 17:52N 29°47' W 095°05'0 0.3
2017-Dec-09 16:34N 29°47' W 095°04'1 5.8
2017-Dec-09 16:27N 29°46' W 095°05'0 0.1
2017-Dec-09 15:18N 29°46' W 095°05'0 0.0
2017-Dec-09 15:00N 29°46' W 095°05'0 0.1
2017-Dec-09 13:58N 29°46' W 095°05'1 1.1
2017-Dec-09 13:28N 29°47' W 095°05'1 1.7
2017-Dec-09 12:59N 29°47' W 095°04'0 0.2
2017-Dec-09 12:23N 29°47' W 095°04'2 4.4
2017-Dec-09 11:57N 29°46' W 095°06'1 0.0
2017-Dec-08 20:14N 29°46' W 095°06'1 1.0
2017-Dec-08 19:17N 29°46' W 095°05'1 3.5
2017-Dec-08 19:00N 29°46' W 095°06'1 1.2
2017-Dec-08 18:28N 29°46' W 095°05'1 0.1
2017-Dec-08 07:28N 29°45' W 095°06'3 1.5
2017-Dec-08 05:25N 29°47' W 095°04'2 3.9
2017-Dec-08 04:58N 29°46' W 095°05'1 1.8
2017-Dec-08 04:21N 29°45' W 095°06'0 0.1
2017-Dec-07 23:05N 29°45' W 095°06'0 6.5
2017-Dec-07 23:00N 29°46' W 095°05'0 0.6
2017-Dec-07 22:24N 29°46' W 095°06'0 0.0
2017-Dec-07 21:35N 29°46' W 095°06'0 5.0
2017-Dec-07 21:30N 29°46' W 095°05'2 4.6
2017-Dec-07 21:00N 29°44' W 095°03'2 4.5
2017-Dec-07 20:30N 29°43' W 095°01'2 4.2
2017-Dec-07 20:00N 29°42' W 094°59'2 4.5
2017-Dec-07 19:30N 29°39' W 094°58'3 5.3
2017-Dec-07 19:00N 29°37' W 094°58'2 3.8
2017-Dec-07 18:30N 29°37' W 094°60'1 2.7
2017-Dec-07 18:00N 29°37' W 095°02'0 0.0
2017-Dec-07 17:30N 29°37' W 095°02'0 0.0
2017-Dec-07 17:00N 29°37' W 095°02'0 0.0
2017-Dec-07 16:30N 29°37' W 095°02'0 0.0
2017-Dec-07 16:00N 29°37' W 095°02'0 0.0
2017-Dec-07 15:30N 29°37' W 095°02'0 0.0
2017-Dec-07 15:00N 29°37' W 095°02'0 0.0
2017-Dec-07 14:30N 29°37' W 095°02'0 0.0
2017-Dec-07 14:00N 29°37' W 095°02'0 0.0
2017-Dec-07 13:30N 29°37' W 095°02'0 0.0
2017-Dec-07 13:00N 29°37' W 095°02'0 0.0
2017-Dec-07 12:31N 29°37' W 095°02'0 0.0
2017-Dec-07 12:00N 29°37' W 095°02'0 0.0
2017-Dec-07 11:30N 29°37' W 095°02'0 0.0
2017-Dec-07 11:00N 29°37' W 095°02'0 0.0
2017-Dec-07 10:30N 29°37' W 095°02'0 0.0
2017-Dec-07 10:00N 29°37' W 095°02'0 0.0
2017-Dec-07 09:30N 29°37' W 095°02'  

Dump ship's entire track history